Map

Track Data

SID SEASON NUMBER BASIN SUBBASIN NAME ISO_TIME NATURE LAT LON WMO_WIND WMO_PRES WMO_AGENCY TRACK_TYPE DIST2LAND LANDFALL IFLAG USA_AGENCY USA_ATCF_ID USA_LAT USA_LON USA_RECORD USA_STATUS USA_WIND USA_PRES USA_SSHS USA_R34_NE USA_R34_SE USA_R34_SW USA_R34_NW USA_R50_NE USA_R50_SE USA_R50_SW USA_R50_NW USA_R64_NE USA_R64_SE USA_R64_SW USA_R64_NW USA_POCI USA_ROCI USA_RMW USA_EYE TOKYO_LAT TOKYO_LON TOKYO_GRADE TOKYO_WIND TOKYO_PRES TOKYO_R50_DIR TOKYO_R50_LONG TOKYO_R50_SHORT TOKYO_R30_DIR TOKYO_R30_LONG TOKYO_R30_SHORT TOKYO_LAND CMA_LAT CMA_LON CMA_CAT CMA_WIND CMA_PRES HKO_LAT HKO_LON HKO_CAT HKO_WIND HKO_PRES NEWDELHI_LAT NEWDELHI_LON NEWDELHI_GRADE NEWDELHI_WIND NEWDELHI_PRES NEWDELHI_CI NEWDELHI_DP NEWDELHI_POCI REUNION_LAT REUNION_LON REUNION_TYPE REUNION_WIND REUNION_PRES REUNION_TNUM REUNION_CI REUNION_RMW REUNION_R34_NE REUNION_R34_SE REUNION_R34_SW REUNION_R34_NW REUNION_R50_NE REUNION_R50_SE REUNION_R50_SW REUNION_R50_NW REUNION_R64_NE REUNION_R64_SE REUNION_R64_SW REUNION_R64_NW BOM_LAT BOM_LON BOM_TYPE BOM_WIND BOM_PRES BOM_TNUM BOM_CI BOM_RMW BOM_R34_NE BOM_R34_SE BOM_R34_SW BOM_R34_NW BOM_R50_NE BOM_R50_SE BOM_R50_SW BOM_R50_NW BOM_R64_NE BOM_R64_SE BOM_R64_SW BOM_R64_NW BOM_ROCI BOM_POCI BOM_EYE BOM_POS_METHOD BOM_PRES_METHOD NADI_LAT NADI_LON NADI_CAT NADI_WIND NADI_PRES WELLINGTON_LAT WELLINGTON_LON WELLINGTON_WIND WELLINGTON_PRES DS824_LAT DS824_LON DS824_STAGE DS824_WIND DS824_PRES TD9636_LAT TD9636_LON TD9636_STAGE TD9636_WIND TD9636_PRES TD9635_LAT TD9635_LON TD9635_WIND TD9635_PRES TD9635_ROCI NEUMANN_LAT NEUMANN_LON NEUMANN_CLASS NEUMANN_WIND NEUMANN_PRES MLC_LAT MLC_LON MLC_CLASS MLC_WIND MLC_PRES USA_GUST BOM_GUST BOM_GUST_PER REUNION_GUST REUNION_GUST_PER USA_SEAHGT USA_SEARAD_NE USA_SEARAD_SE USA_SEARAD_SW USA_SEARAD_NW STORM_SPEED STORM_DIR
1935210N20142 1935 39 WP MM NOT_NAMED 1935-07-28 21:00:00 NR 20.0000 142.000 main 1617 1617 __________O___ -1 20.0000 142.000 4 5 195
1935210N20142 1935 39 WP MM NOT_NAMED 1935-07-29 00:00:00 NR 19.7358 141.927 main 1644 1644 __________P___ -1 19.7358 141.927 4 5 197
1935210N20142 1935 39 WP MM NOT_NAMED 1935-07-29 03:00:00 NR 19.4873 141.833 main 1662 1662 __________P___ -1 19.4873 141.833 4 5 205
1935210N20142 1935 39 WP MM NOT_NAMED 1935-07-29 06:00:00 NR 19.2702 141.697 main 1679 1679 __________P___ -1 19.2702 141.697 4 5 219
1935210N20142 1935 39 WP MM NOT_NAMED 1935-07-29 09:00:00 NR 19.1000 141.500 main 1694 1691 __________O___ -1 19.1000 141.500 4 5 238
1935210N20142 1935 39 WP MM NOT_NAMED 1935-07-29 12:00:00 NR 18.9891 141.227 main 1695 1686 __________P___ -1 18.9891 141.227 4 6 254
1935210N20142 1935 39 WP MM NOT_NAMED 1935-07-29 15:00:00 NR 18.9375 140.890 main 1690 1667 __________P___ -1 18.9375 140.890 4 7 266
1935210N20142 1935 39 WP MM NOT_NAMED 1935-07-29 18:00:00 NR 18.9422 140.508 main 1667 1636 __________P___ -1 18.9422 140.508 4 7 275
1935210N20142 1935 39 WP MM NOT_NAMED 1935-07-29 21:00:00 NR 19.0000 140.100 main 1636 1611 __________O___ -1 19.0000 140.100 4 7 287
1935210N20142 1935 39 WP MM NOT_NAMED 1935-07-30 00:00:00 NR 19.1550 139.767 main 1601 1571 __________P___ -1 19.1550 139.767 4 7 298
1935210N20142 1935 39 WP MM NOT_NAMED 1935-07-30 03:00:00 NR 19.3500 139.402 main 1571 1530 __________P___ -1 19.3500 139.402 4 8 296
1935210N20142 1935 39 WP MM NOT_NAMED 1935-07-30 06:00:00 NR 19.5200 138.961 main 1530 1488 __________P___ -1 19.5200 138.961 4 10 285
1935210N20142 1935 39 WP MM NOT_NAMED 1935-07-30 09:00:00 NR 19.6000 138.400 main 1488 1463 __________O___ -1 19.6000 138.400 4 13 267
1935210N20142 1935 39 WP MM NOT_NAMED 1935-07-30 12:00:00 NR 19.4582 137.628 main 1459 1440 __________P___ -1 19.4582 137.628 4 16 256
1935210N20142 1935 39 WP MM NOT_NAMED 1935-07-30 15:00:00 NR 19.2257 136.748 main 1431 1348 __________P___ -1 19.2257 136.748 4 18 254
1935210N20142 1935 39 WP MM NOT_NAMED 1935-07-30 18:00:00 NR 18.9800 135.844 main 1339 1256 __________P___ -1 18.9800 135.844 4 17 256
1935210N20142 1935 39 WP MM NOT_NAMED 1935-07-30 21:00:00 NR 18.8000 135.000 main 1256 1190 __________O___ -1 18.8000 135.000 4 15 263
1935210N20142 1935 39 WP MM NOT_NAMED 1935-07-31 00:00:00 NR 18.7905 134.306 main 1190 1133 __________P___ -1 18.7905 134.306 4 12 273
1935210N20142 1935 39 WP MM NOT_NAMED 1935-07-31 03:00:00 NR 18.8584 133.682 main 1138 1089 __________P___ -1 18.8584 133.682 4 11 279
1935210N20142 1935 39 WP MM NOT_NAMED 1935-07-31 06:00:00 NR 18.9721 133.118 main 1089 1050 __________P___ -1 18.9721 133.118 4 11 283
1935210N20142 1935 39 WP MM NOT_NAMED 1935-07-31 09:00:00 NR 19.1000 132.600 main 1050 1012 __________O___ -1 19.1000 132.600 4 10 282
1935210N20142 1935 39 WP MM NOT_NAMED 1935-07-31 12:00:00 NR 19.1801 132.082 main 1012 976 __________P___ -1 19.1801 132.082 4 10 280
1935210N20142 1935 39 WP MM NOT_NAMED 1935-07-31 15:00:00 NR 19.2694 131.610 main 976 942 __________P___ -1 19.2694 131.610 4 9 283
1935210N20142 1935 39 WP MM NOT_NAMED 1935-07-31 18:00:00 NR 19.3740 131.182 main 942 902 __________P___ -1 19.3740 131.182 4 8 287
1935210N20142 1935 39 WP MM NOT_NAMED 1935-07-31 21:00:00 NR 19.5000 130.800 main 902 872 __________O___ -1 19.5000 130.800 4 7 292
1935210N20142 1935 39 WP MM NOT_NAMED 1935-08-01 00:00:00 NR 19.6486 130.473 main 872 844 __________P___ -1 19.6486 130.473 4 7 299
1935210N20142 1935 39 WP MM NOT_NAMED 1935-08-01 03:00:00 NR 19.8189 130.184 main 844 817 __________P___ -1 19.8189 130.184 4 6 304
1935210N20142 1935 39 WP MM NOT_NAMED 1935-08-01 06:00:00 NR 20.0049 129.904 main 817 792 __________P___ -1 20.0049 129.904 4 7 305
1935210N20142 1935 39 WP MM NOT_NAMED 1935-08-01 09:00:00 NR 20.2000 129.600 main 792 757 __________O___ -1 20.2000 129.600 4 8 303
1935210N20142 1935 39 WP MM NOT_NAMED 1935-08-01 12:00:00 NR 20.4132 129.225 main 757 724 __________P___ -1 20.4132 129.225 4 8 301
1935210N20142 1935 39 WP MM NOT_NAMED 1935-08-01 15:00:00 NR 20.6301 128.823 main 724 692 __________P___ -1 20.6301 128.823 4 9 299
1935210N20142 1935 39 WP MM NOT_NAMED 1935-08-01 18:00:00 NR 20.8319 128.409 main 692 663 __________P___ -1 20.8319 128.409 4 9 296
1935210N20142 1935 39 WP MM NOT_NAMED 1935-08-01 21:00:00 NR 21.0000 128.000 main 663 640 __________O___ -1 21.0000 128.000 4 8 291
1935210N20142 1935 39 WP MM NOT_NAMED 1935-08-02 00:00:00 NR 21.0978 127.649 main 631 609 __________P___ -1 21.0978 127.649 4 7 284
1935210N20142 1935 39 WP MM NOT_NAMED 1935-08-02 03:00:00 NR 21.1636 127.301 main 609 574 __________P___ -1 21.1636 127.301 4 7 280
1935210N20142 1935 39 WP MM NOT_NAMED 1935-08-02 06:00:00 NR 21.2227 126.927 main 574 545 __________P___ -1 21.2227 126.927 4 8 280
1935210N20142 1935 39 WP MM NOT_NAMED 1935-08-02 09:00:00 NR 21.3000 126.500 main 545 509 __________O___ -1 21.3000 126.500 4 9 283
1935210N20142 1935 39 WP MM NOT_NAMED 1935-08-02 12:00:00 NR 21.4417 125.943 main 500 444 __________P___ -1 21.4417 125.943 4 11 286
1935210N20142 1935 39 WP MM NOT_NAMED 1935-08-02 15:00:00 NR 21.6016 125.336 main 434 378 __________P___ -1 21.6016 125.336 4 12 286
1935210N20142 1935 39 WP MM NOT_NAMED 1935-08-02 18:00:00 NR 21.7605 124.736 main 368 317 __________P___ -1 21.7605 124.736 4 11 286
1935210N20142 1935 39 WP MM NOT_NAMED 1935-08-02 21:00:00 NR 21.9000 124.200 main 317 275 __________O___ -1 21.9000 124.200 4 9 285
1935210N20142 1935 39 WP MM NOT_NAMED 1935-08-03 00:00:00 NR 21.9997 123.782 main 275 242 __________P___ -1 21.9997 123.782 4 7 284
1935210N20142 1935 39 WP MM NOT_NAMED 1935-08-03 03:00:00 NR 22.0790 123.437 main 233 215 __________P___ -1 22.0790 123.437 4 6 284
1935210N20142 1935 39 WP MM NOT_NAMED 1935-08-03 06:00:00 NR 22.1438 123.148 main 207 183 __________P___ -1 22.1438 123.148 4 5 284
1935210N20142 1935 39 WP MM NOT_NAMED 1935-08-03 09:00:00 NR 22.2000 122.900 main 183 167 __________O___ -1 22.2000 122.900 4 5 284
1935210N20142 1935 39 WP MM NOT_NAMED 1935-08-03 12:00:00 NR 22.2527 122.676 main 160 143 __________P___ -1 22.2527 122.676 4 4 285
1935210N20142 1935 39 WP MM NOT_NAMED 1935-08-03 15:00:00 NR 22.2994 122.485 main 143 128 __________P___ -1 22.2994 122.485 4 4 285
1935210N20142 1935 39 WP MM NOT_NAMED 1935-08-03 18:00:00 NR 22.3464 122.301 main 128 105 __________P___ -1 22.3464 122.301 4 4 286
1935210N20142 1935 39 WP MM NOT_NAMED 1935-08-03 21:00:00 NR 22.4000 122.100 main 105 75 __________O___ -1 22.4000 122.100 4 5 291
1935210N20142 1935 39 WP MM NOT_NAMED 1935-08-04 00:00:00 NR 22.5168 121.827 main 75 52 __________P___ -1 22.5168 121.827 4 6 294
1935210N20142 1935 39 WP MM NOT_NAMED 1935-08-04 03:00:00 NR 22.6328 121.536 main 45 23 __________P___ -1 22.6328 121.536 4 6 290
1935210N20142 1935 39 WP MM NOT_NAMED 1935-08-04 06:00:00 NR 22.7074 121.252 main 23 0 __________P___ -1 22.7074 121.252 4 5 278
1935210N20142 1935 39 WP MM NOT_NAMED 1935-08-04 09:00:00 NR 22.7000 121.000 main 0 0 __________O___ -1 22.7000 121.000 4 4 241
1935210N20142 1935 39 WP MM NOT_NAMED 1935-08-04 12:00:00 NR 22.5156 120.879 main 0 0 __________P___ -1 22.5156 120.879 4 5 204
1935210N20142 1935 39 WP MM NOT_NAMED 1935-08-04 15:00:00 NR 22.2559 120.782 main 0 0 __________P___ -1 22.2559 120.782 4 6 202
1935210N20142 1935 39 WP MM NOT_NAMED 1935-08-04 18:00:00 NR 21.9934 120.644 main 10 10 __________P___ -1 21.9934 120.644 4 6 218
1935210N20142 1935 39 WP MM NOT_NAMED 1935-08-04 21:00:00 NR 21.8000 120.400 main 32 32 __________O___ -1 21.8000 120.400 4 7 250
1935210N20142 1935 39 WP MM NOT_NAMED 1935-08-05 00:00:00 NR 21.7522 119.925 main 83 83 __________P___ -1 21.7522 119.925 4 10 269
1935210N20142 1935 39 WP MM NOT_NAMED 1935-08-05 03:00:00 NR 21.7823 119.346 main 129 129 __________P___ -1 21.7823 119.346 4 11 276
1935210N20142 1935 39 WP MM NOT_NAMED 1935-08-05 06:00:00 NR 21.8710 118.744 main 177 177 __________P___ -1 21.8710 118.744 4 11 282
1935210N20142 1935 39 WP MM NOT_NAMED 1935-08-05 09:00:00 NR 22.0000 118.200 main 199 160 __________O___ -1 22.0000 118.200 4 9 286
1935210N20142 1935 39 WP MM NOT_NAMED 1935-08-05 12:00:00 NR 22.1221 117.796 main 160 122 __________P___ -1 22.1221 117.796 4 7 292
1935210N20142 1935 39 WP MM NOT_NAMED 1935-08-05 15:00:00 NR 22.2817 117.465 main 122 84 __________P___ -1 22.2817 117.465 4 7 303
1935210N20142 1935 39 WP MM NOT_NAMED 1935-08-05 18:00:00 NR 22.4755 117.202 main 84 55 __________P___ -1 22.4755 117.202 4 6 314
1935210N20142 1935 39 WP MM NOT_NAMED 1935-08-05 21:00:00 NR 22.7000 117.000 main 55 30 __________O___ -1 22.7000 117.000 4 6 324
1935210N20142 1935 39 WP MM NOT_NAMED 1935-08-06 00:00:00 NR 22.9419 116.838 main 30 10 __________P___ -1 22.9419 116.838 4 6 334
1935210N20142 1935 39 WP MM NOT_NAMED 1935-08-06 03:00:00 NR 23.2121 116.732 main 10 0 __________P___ -1 23.2121 116.732 4 6 344
1935210N20142 1935 39 WP MM NOT_NAMED 1935-08-06 06:00:00 NR 23.5013 116.660 main 0 0 __________P___ -1 23.5013 116.660 4 6 348
1935210N20142 1935 39 WP MM NOT_NAMED 1935-08-06 09:00:00 NR 23.8000 116.600 main 0 0 __________O___ -1 23.8000 116.600 4 6 347
1935210N20142 1935 39 WP MM NOT_NAMED 1935-08-06 12:00:00 NR 24.0725 116.514 main 0 0 __________P___ -1 24.0725 116.514 4 6 344
1935210N20142 1935 39 WP MM NOT_NAMED 1935-08-06 15:00:00 NR 24.3550 116.435 main 0 0 __________P___ -1 24.3550 116.435 4 6 347
1935210N20142 1935 39 WP MM NOT_NAMED 1935-08-06 18:00:00 NR 24.6600 116.364 main 0 0 __________P___ -1 24.6600 116.364 4 7 349
1935210N20142 1935 39 WP MM NOT_NAMED 1935-08-06 21:00:00 NR 25.0000 116.300 main 0 0 __________O___ -1 25.0000 116.300 4 8 349
1935210N20142 1935 39 WP MM NOT_NAMED 1935-08-07 00:00:00 NR 25.4337 116.203 main 0 0 __________P___ -1 25.4337 116.203 4 9 350
1935210N20142 1935 39 WP MM NOT_NAMED 1935-08-07 03:00:00 NR 25.8948 116.118 main 0 0 __________P___ -1 25.8948 116.118 4 9 353
1935210N20142 1935 39 WP MM NOT_NAMED 1935-08-07 06:00:00 NR 26.3336 116.075 main 0 0 __________P___ -1 26.3336 116.075 4 8 0
1935210N20142 1935 39 WP MM NOT_NAMED 1935-08-07 09:00:00 NR 26.7000 116.100 main 0 0 __________O___ -1 26.7000 116.100 4 5 13
1935210N20142 1935 39 WP MM NOT_NAMED 1935-08-07 12:00:00 NR 26.8111 116.198 main 0 0 __________P___ -1 26.8111 116.198 4 3 55
1935210N20142 1935 39 WP MM NOT_NAMED 1935-08-07 15:00:00 NR 26.8647 116.370 main 0 0 __________P___ -1 26.8647 116.370 4 4 64
1935210N20142 1935 39 WP MM NOT_NAMED 1935-08-07 18:00:00 NR 26.9860 116.606 main 0 0 __________P___ -1 26.9860 116.606 4 6 47
1935210N20142 1935 39 WP MM NOT_NAMED 1935-08-07 21:00:00 NR 27.3000 116.900 main 0 0 __________O___ -1 27.3000 116.900 4 12 26
1935210N20142 1935 39 WP MM NOT_NAMED 1935-08-08 00:00:00 NR 28.0837 117.201 main 0 0 __________P___ -1 28.0837 117.201 4 19 19
1935210N20142 1935 39 WP MM NOT_NAMED 1935-08-08 03:00:00 NR 29.0491 117.565 main 0 0 __________P___ -1 29.0491 117.565 4 21 20
1935210N20142 1935 39 WP MM NOT_NAMED 1935-08-08 06:00:00 NR 30.0149 117.998 main 0 0 __________P___ -1 30.0149 117.998 4 19 25
1935210N20142 1935 39 WP MM NOT_NAMED 1935-08-08 09:00:00 NR 30.8000 118.500 main 0 0 __________O___ -1 30.8000 118.500 4 15 40
1935210N20142 1935 39 WP MM NOT_NAMED 1935-08-08 12:00:00 NR 31.1434 119.102 main 0 0 __________P___ -1 31.1434 119.102 4 12 66
1935210N20142 1935 39 WP MM NOT_NAMED 1935-08-08 15:00:00 NR 31.2894 119.756 main 0 0 __________P___ -1 31.2894 119.756 4 11 80
1935210N20142 1935 39 WP MM NOT_NAMED 1935-08-08 18:00:00 NR 31.3404 120.408 main 0 0 __________P___ -1 31.3404 120.408 4 11 84
1935210N20142 1935 39 WP MM NOT_NAMED 1935-08-08 21:00:00 NR 31.4000 121.000 main 0 0 __________O___ -1 31.4000 121.000 4 8 73
1935210N20142 1935 39 WP MM NOT_NAMED 1935-08-09 00:00:00 NR 31.5878 121.360 main 14 0 __________P___ -1 31.5878 121.360 4 7 54
1935210N20142 1935 39 WP MM NOT_NAMED 1935-08-09 03:00:00 NR 31.8097 121.673 main 0 0 __________P___ -1 31.8097 121.673 4 8 50
1935210N20142 1935 39 WP MM NOT_NAMED 1935-08-09 06:00:00 NR 32.0771 122.049 main 30 30 __________P___ -1 32.0771 122.049 4 10 53
1935210N20142 1935 39 WP MM NOT_NAMED 1935-08-09 09:00:00 NR 32.4000 122.600 main 95 95 __________O___ -1 32.4000 122.600 4 15 60
1935210N20142 1935 39 WP MM NOT_NAMED 1935-08-09 12:00:00 NR 32.8317 123.569 main 199 148 __________P___ -1 32.8317 123.569 4 20 63
1935210N20142 1935 39 WP MM NOT_NAMED 1935-08-09 15:00:00 NR 33.2996 124.714 main 139 51 __________P___ -1 33.2996 124.714 4 21 65
1935210N20142 1935 39 WP MM NOT_NAMED 1935-08-09 18:00:00 NR 33.7414 125.879 main 43 33 __________P___ -1 33.7414 125.879 4 20 66
1935210N20142 1935 39 WP MM NOT_NAMED 1935-08-09 21:00:00 NR 34.1000 126.900 main 33 11 __________O___ -1 34.1000 126.900 4 15 66
1935210N20142 1935 39 WP MM NOT_NAMED 1935-08-10 00:00:00 NR 34.3589 127.584 main 22 14 __________P___ -1 34.3589 127.584 4 11 66
1935210N20142 1935 39 WP MM NOT_NAMED 1935-08-10 03:00:00 NR 34.5315 128.095 main 29 22 __________P___ -1 34.5315 128.095 4 8 71
1935210N20142 1935 39 WP MM NOT_NAMED 1935-08-10 06:00:00 NR 34.6137 128.482 main 24 24 __________P___ -1 34.6137 128.482 4 6 83
1935210N20142 1935 39 WP MM NOT_NAMED 1935-08-10 09:00:00 NR 34.6000 128.800 main 42 42 __________O___ -1 34.6000 128.800 4 4 116
1935210N20142 1935 39 WP MM NOT_NAMED 1935-08-10 12:00:00 NR 34.4248 128.945 main 63 63 __________P___ -1 34.4248 128.945 4 5 153
1935210N20142 1935 39 WP MM NOT_NAMED 1935-08-10 15:00:00 NR 34.1721 129.063 main 89 71 __________P___ -1 34.1721 129.063 4 6 147
1935210N20142 1935 39 WP MM NOT_NAMED 1935-08-10 18:00:00 NR 33.9338 129.325 main 71 28 __________P___ -1 33.9338 129.325 4 8 118
1935210N20142 1935 39 WP MM NOT_NAMED 1935-08-10 21:00:00 NR 33.8000 129.900 main 28 0 __________O___ -1 33.8000 129.900 4 12 93
1935210N20142 1935 39 WP MM NOT_NAMED 1935-08-11 00:00:00 NR 33.8664 130.753 main 9 0 __________P___ -1 33.8664 130.753 4 17 82
1935210N20142 1935 39 WP MM NOT_NAMED 1935-08-11 03:00:00 NR 34.0373 131.967 main 0 0 __________P___ -1 34.0373 131.967 4 24 80
1935210N20142 1935 39 WP MM NOT_NAMED 1935-08-11 06:00:00 NR 34.2661 133.597 main 14 0 __________P___ -1 34.2661 133.597 4 31 81
1935210N20142 1935 39 WP MM NOT_NAMED 1935-08-11 09:00:00 NR 34.5000 135.700 main 0 0 __________O___ -1 34.5000 135.700 4 41 85
1935210N20142 1935 39 WP MM NOT_NAMED 1935-08-11 12:00:00 NR 34.6104 138.532 main 21 9 __________P___ -1 34.6104 138.532 4 50 88
1935210N20142 1935 39 WP MM NOT_NAMED 1935-08-11 15:00:00 NR 34.6597 141.782 main 138 138 __________P___ -1 34.6597 141.782 4 54 89
1935210N20142 1935 39 WP MM NOT_NAMED 1935-08-11 18:00:00 NR 34.6694 145.064 main 396 396 __________P___ -1 34.6694 145.064 4 51 90
1935210N20142 1935 39 WP MM NOT_NAMED 1935-08-11 21:00:00 NR 34.7000 148.000 main 653 653 __________O___ -1 34.7000 148.000 4 43 88
1935210N20142 1935 39 WP MM NOT_NAMED 1935-08-12 00:00:00 NR 34.8265 150.319 main 857 857 __________P___ -1 34.8265 150.319 4 34 84
1935210N20142 1935 39 WP MM NOT_NAMED 1935-08-12 03:00:00 NR 35.0556 152.121 main 1007 1007 __________P___ -1 35.0556 152.121 4 27 79
1935210N20142 1935 39 WP MM NOT_NAMED 1935-08-12 06:00:00 NR 35.3601 153.590 main 1109 1109 __________P___ -1 35.3601 153.590 4 24 74
1935210N20142 1935 39 WP MM NOT_NAMED 1935-08-12 09:00:00 NR 35.7000 154.900 main 1158 __________O___ -1 35.7000 154.900 4 22 72

Digital Typhoon Data and Search

About IBTrACS Database

This database is a web-friendly format of International Best Track Archive for Climate Stewardship (IBTrACS), a global best track data archive curated by NOAA dating back to 1842.

Updated: 2021-12-08